Cape Providence — 3EWQ — position and weather

sailwx.info

Track history (hours):
 
Tides and Currents Weather Stations Pressure Air Temp Water Temp Dewpoint Dewpoint Depression Visibility Wind Speed Wind Dir Waves Ship Positions

Cape Providence

Last reported at 2015-May-22 07:06 UTC. Time now 2015-May-22 16:09 UTC.
Position N 35°39' E 124°27'.

Length 292 m; draft 8.4 m.

Type: Cargo ship. MMSI: 372773000.

Date/timePositionNaut miles runAvg speedWind from/ knotsBaromVisibWave heightAir tempDewpointWater temp
2015-May-22 07:06N 35°39' E 124°27'911.7
2015-May-22 06:18N 35°47' E 124°22'1311.0
2015-May-22 05:07N 35°59' E 124°15'711.4
2015-May-22 04:31N 36°05' E 124°11'1611.7
2015-May-22 03:10N 36°20' E 124°03'711.7
2015-May-22 02:33N 36°26' E 123°59'1111.3
2015-May-22 01:32N 36°37' E 123°53'1111.1
2015-May-22 00:33N 36°46' E 123°47'1111.1
2015-May-21 23:33N 36°56' E 123°40'1211.0
2015-May-21 22:30N 37°07' E 123°35'1211.3
2015-May-21 21:24N 37°18' E 123°29'1011.8
2015-May-21 20:33N 37°27' E 123°24'1312.3
2015-May-21 19:28N 37°39' E 123°16'7212.1
2015-May-21 13:30N 38°11' E 121°55'2311.8
2015-May-21 11:33N 38°21' E 121°28'5810.9
2015-May-21 06:12N 38°37' E 120°17'910.3
2015-May-21 05:19N 38°38' E 120°05'910.7
2015-May-21 04:28N 38°40' E 119°54'1111.4
2015-May-21 03:32N 38°41' E 119°40'1211.8
2015-May-21 02:33N 38°43' E 119°26'1312.3
2015-May-21 01:32N 38°44' E 119°10'2713.1
2015-May-20 23:26N 38°49' E 118°35'  
2015-May-17 10:33N 38°31' E 121°08'9 8.8
2015-May-17 09:33N 38°27' E 121°19'9 9.2
2015-May-17 08:33N 38°23' E 121°29'10 9.5
2015-May-17 07:31N 38°19' E 121°40'10 9.9
2015-May-17 06:28N 38°14' E 121°52'76 9.5
2015-May-16 22:33N 37°39' E 123°17'1111.0
2015-May-16 21:33N 37°29' E 123°23'1111.3
2015-May-16 20:33N 37°18' E 123°28'1111.2
2015-May-16 19:33N 37°08' E 123°34'1110.7
2015-May-16 18:31N 36°58' E 123°40'1010.2
2015-May-16 17:33N 36°49' E 123°46'10 9.7
2015-May-16 16:30N 36°40' E 123°51'9 9.4
2015-May-16 15:33N 36°32' E 123°56'9 9.2
2015-May-16 14:33N 36°24' E 124°01'109 9.5
2015-May-16 03:07N 34°46' E 124°58'710.0
2015-May-16 02:23N 34°39' E 125°01'910.3
2015-May-16 01:29N 34°31' E 125°06'  
Track history (hours):
 
Tides and Currents Weather Stations Pressure Air Temp Water Temp Dewpoint Dewpoint Depression Visibility Wind Speed Wind Dir Waves Ship Positions

Cape Providence

Last reported at 2015-May-22 07:06 UTC. Time now 2015-May-22 16:09 UTC.
Position N 35°39' E 124°27'.

Length 292 m; draft 8.4 m.

Type: Cargo ship. MMSI: 372773000.

Date/timePositionNaut miles runAvg speedWind from/ knotsBaromVisibWave heightAir tempDewpointWater temp
2015-May-22 07:06N 35°39' E 124°27'911.7
2015-May-22 06:18N 35°47' E 124°22'1311.0
2015-May-22 05:07N 35°59' E 124°15'711.4
2015-May-22 04:31N 36°05' E 124°11'1611.7
2015-May-22 03:10N 36°20' E 124°03'711.7
2015-May-22 02:33N 36°26' E 123°59'1111.3
2015-May-22 01:32N 36°37' E 123°53'1111.1
2015-May-22 00:33N 36°46' E 123°47'1111.1
2015-May-21 23:33N 36°56' E 123°40'1211.0
2015-May-21 22:30N 37°07' E 123°35'1211.3
2015-May-21 21:24N 37°18' E 123°29'1011.8
2015-May-21 20:33N 37°27' E 123°24'1312.3
2015-May-21 19:28N 37°39' E 123°16'7212.1
2015-May-21 13:30N 38°11' E 121°55'2311.8
2015-May-21 11:33N 38°21' E 121°28'5810.9
2015-May-21 06:12N 38°37' E 120°17'910.3
2015-May-21 05:19N 38°38' E 120°05'910.7
2015-May-21 04:28N 38°40' E 119°54'1111.4
2015-May-21 03:32N 38°41' E 119°40'1211.8
2015-May-21 02:33N 38°43' E 119°26'1312.3
2015-May-21 01:32N 38°44' E 119°10'2713.1
2015-May-20 23:26N 38°49' E 118°35'  
2015-May-17 10:33N 38°31' E 121°08'9 8.8
2015-May-17 09:33N 38°27' E 121°19'9 9.2
2015-May-17 08:33N 38°23' E 121°29'10 9.5
2015-May-17 07:31N 38°19' E 121°40'10 9.9
2015-May-17 06:28N 38°14' E 121°52'76 9.5
2015-May-16 22:33N 37°39' E 123°17'1111.0
2015-May-16 21:33N 37°29' E 123°23'1111.3
2015-May-16 20:33N 37°18' E 123°28'1111.2
2015-May-16 19:33N 37°08' E 123°34'1110.7
2015-May-16 18:31N 36°58' E 123°40'1010.2
2015-May-16 17:33N 36°49' E 123°46'10 9.7
2015-May-16 16:30N 36°40' E 123°51'9 9.4
2015-May-16 15:33N 36°32' E 123°56'9 9.2
2015-May-16 14:33N 36°24' E 124°01'109 9.5
2015-May-16 03:07N 34°46' E 124°58'710.0
2015-May-16 02:23N 34°39' E 125°01'910.3
2015-May-16 01:29N 34°31' E 125°06'  

Dump ship's entire track history